createdAt,value
2022-09-28T00:02:14.041Z,91.6
2022-09-28T00:05:13.987Z,91.6
2022-09-28T00:08:14.014Z,91.7
2022-09-28T00:11:14.004Z,91.8
2022-09-28T00:14:14.017Z,92
2022-09-28T00:17:14.021Z,92
2022-09-28T00:20:14.030Z,92
2022-09-28T00:23:14.045Z,91.9
2022-09-28T00:26:14.084Z,91.9
2022-09-28T00:29:14.221Z,91.9
2022-09-28T00:32:14.084Z,91.9
2022-09-28T00:35:14.099Z,92
2022-09-28T00:38:14.112Z,92
2022-09-28T00:41:14.121Z,92
2022-09-28T00:44:14.154Z,92.1
2022-09-28T00:47:14.148Z,92.3
2022-09-28T00:50:14.156Z,92.4
2022-09-28T00:53:14.167Z,92.4
2022-09-28T00:56:14.182Z,92.6
2022-09-28T00:59:14.228Z,92.8
2022-09-28T01:02:14.267Z,93
2022-09-28T01:05:14.210Z,93.2
2022-09-28T01:08:14.232Z,93.4
2022-09-28T01:11:14.241Z,93.7
2022-09-28T01:14:14.248Z,94
2022-09-28T01:17:14.443Z,94.5
2022-09-28T01:20:14.330Z,94.7
2022-09-28T01:23:14.292Z,94.8
2022-09-28T01:26:14.298Z,94.8
2022-09-28T01:29:14.372Z,94.8
2022-09-28T01:32:14.327Z,94.8
2022-09-28T01:35:14.343Z,94.7
2022-09-28T01:38:14.381Z,94.7
2022-09-28T01:41:14.367Z,94.9
2022-09-28T01:44:14.378Z,95
2022-09-28T01:47:14.396Z,95
2022-09-28T01:50:14.400Z,94.9
2022-09-28T01:53:14.416Z,95
2022-09-28T01:56:14.459Z,95.2
2022-09-28T01:59:14.636Z,95.4
2022-09-28T02:02:14.494Z,95.4
2022-09-28T02:05:14.465Z,95.4
2022-09-28T02:08:14.493Z,95.5
2022-09-28T02:11:14.492Z,95.7
2022-09-28T02:14:14.535Z,95.8
2022-09-28T02:17:14.520Z,96
2022-09-28T02:20:14.536Z,95.9
2022-09-28T02:23:14.551Z,95.7
2022-09-28T02:26:14.560Z,95.5
2022-09-28T02:29:14.724Z,95.5
2022-09-28T02:32:14.617Z,95.5
2022-09-28T02:35:14.608Z,95.7
2022-09-28T02:38:14.623Z,95.9
2022-09-28T02:41:14.653Z,96.2
2022-09-28T02:44:14.659Z,96.2
2022-09-28T02:47:14.667Z,96.1
2022-09-28T02:50:14.708Z,95.9
2022-09-28T02:53:14.697Z,95.7
2022-09-28T02:56:14.699Z,95.6
2022-09-28T02:59:14.756Z,95.6
2022-09-28T03:02:14.794Z,95.7
2022-09-28T03:05:14.747Z,95.9
2022-09-28T03:08:14.800Z,96.4
2022-09-28T03:11:14.770Z,96.7
2022-09-28T03:14:14.784Z,97.1
2022-09-28T03:17:14.807Z,97.5
2022-09-28T03:20:14.816Z,97.7
2022-09-28T03:23:30.218Z,97.9
2022-09-28T03:26:14.872Z,98.1
2022-09-28T03:29:15.023Z,98.2
2022-09-28T03:32:14.877Z,98.3
2022-09-28T03:35:14.908Z,98.3
2022-09-28T03:38:14.916Z,98.4
2022-09-28T03:41:14.934Z,98.5
2022-09-28T03:44:14.974Z,98.5
2022-09-28T03:47:14.962Z,98.6
2022-09-28T03:50:14.985Z,98.6
2022-09-28T03:53:15.008Z,98.6
2022-09-28T03:56:15.015Z,98.7
2022-09-28T03:59:15.081Z,98.7
2022-09-28T04:02:15.092Z,98.7
2022-09-28T04:05:15.060Z,98.6
2022-09-28T04:08:15.080Z,98.7
2022-09-28T04:11:15.092Z,98.7
2022-09-28T04:14:15.112Z,98.6
2022-09-28T04:17:15.129Z,98.6
2022-09-28T04:20:15.184Z,98.6
2022-09-28T04:23:15.176Z,98.6
2022-09-28T04:26:15.188Z,98.6
2022-09-28T04:29:15.213Z,98.6
2022-09-28T04:32:15.232Z,98.5
2022-09-28T04:35:15.248Z,98.5
2022-09-28T04:38:15.284Z,98.5
2022-09-28T04:41:15.275Z,98.4
2022-09-28T04:44:15.293Z,98.4
2022-09-28T04:47:15.321Z,98.3
2022-09-28T04:50:15.342Z,98.3
2022-09-28T04:53:15.353Z,98.3
2022-09-28T04:56:15.395Z,98.2
2022-09-28T04:59:15.447Z,98.2
2022-09-28T05:02:15.624Z,98.1
2022-09-28T05:05:15.428Z,98.1
2022-09-28T05:08:15.445Z,98.1
2022-09-28T05:11:15.470Z,98.1
2022-09-28T05:14:15.521Z,98
2022-09-28T05:17:15.504Z,98
2022-09-28T05:20:15.513Z,97.9
2022-09-28T05:23:15.552Z,97.9
2022-09-28T05:26:15.548Z,97.8
2022-09-28T05:29:15.606Z,97.8
2022-09-28T05:32:15.595Z,97.7
2022-09-28T05:35:15.594Z,97.7
2022-09-28T05:38:15.603Z,97.7
2022-09-28T05:41:15.615Z,97.7
2022-09-28T05:44:15.676Z,97.6
2022-09-28T05:47:15.639Z,97.6
2022-09-28T05:50:15.685Z,97.5
2022-09-28T05:53:15.697Z,97.5
2022-09-28T05:56:15.681Z,97.5
2022-09-28T05:59:15.697Z,97.4
2022-09-28T06:02:15.741Z,97.4
2022-09-28T06:05:15.755Z,97.3
2022-09-28T06:08:15.760Z,97.2
2022-09-28T06:11:15.761Z,97.1
2022-09-28T06:14:15.785Z,97
2022-09-28T06:17:15.782Z,96.9
2022-09-28T06:20:15.794Z,96.9
2022-09-28T06:23:15.820Z,96.8
2022-09-28T06:26:15.858Z,96.7
2022-09-28T06:29:19.282Z,96.7
2022-09-28T06:32:15.859Z,96.6
2022-09-28T06:35:15.877Z,96.6
2022-09-28T06:38:15.876Z,96.6
2022-09-28T06:41:15.891Z,96.5
2022-09-28T06:44:15.976Z,96.5
2022-09-28T06:47:15.925Z,96.5
2022-09-28T06:50:15.932Z,96.5
2022-09-28T06:53:15.940Z,96.5
2022-09-28T06:56:15.955Z,96.5
2022-09-28T06:59:15.977Z,96.5
2022-09-28T07:02:16.054Z,96.4
2022-09-28T07:05:15.986Z,96.4
2022-09-28T07:08:16.002Z,96.3
2022-09-28T07:11:15.999Z,96.3
2022-09-28T07:14:29.602Z,96.3
2022-09-28T07:17:16.102Z,96.2
2022-09-28T07:20:19.033Z,96.2
2022-09-28T07:23:19.199Z,96.2
2022-09-28T07:26:18.190Z,96.1
2022-09-28T07:29:16.052Z,96.1
2022-09-28T07:32:16.057Z,96.1
2022-09-28T07:35:16.065Z,96.1
2022-09-28T07:38:16.101Z,96
2022-09-28T07:41:16.081Z,95.9
2022-09-28T07:44:16.151Z,95.7
2022-09-28T07:47:16.090Z,95.6
2022-09-28T07:50:16.104Z,95.5
2022-09-28T07:53:16.115Z,95.4
2022-09-28T07:56:16.144Z,95.3
2022-09-28T07:59:16.125Z,95.2
2022-09-28T08:02:16.197Z,94.9
2022-09-28T08:05:16.136Z,94.6
2022-09-28T08:08:16.146Z,94.5
2022-09-28T08:11:16.152Z,94.4
2022-09-28T08:14:16.192Z,94.1
2022-09-28T08:17:16.172Z,93.7
2022-09-28T08:20:16.179Z,93.5
2022-09-28T08:23:16.189Z,93.2
2022-09-28T08:26:16.198Z,92.9
2022-09-28T08:29:16.204Z,92.6
2022-09-28T08:32:16.247Z,92.5
2022-09-28T08:35:16.219Z,92.4
2022-09-28T08:38:16.223Z,92.1
2022-09-28T08:41:16.235Z,92
2022-09-28T08:44:16.244Z,91.4
2022-09-28T08:47:16.247Z,90.8
2022-09-28T08:50:16.291Z,90.6
2022-09-28T08:53:16.252Z,90
2022-09-28T08:56:16.276Z,89.7
2022-09-28T08:59:16.289Z,89.6
2022-09-28T09:02:16.366Z,89.2
2022-09-28T09:05:16.295Z,89.8
2022-09-28T09:08:16.327Z,89.4
2022-09-28T09:11:16.315Z,88.8
2022-09-28T09:14:16.319Z,88.8
2022-09-28T09:17:16.328Z,88.9
2022-09-28T09:20:16.328Z,88.6
2022-09-28T09:23:16.338Z,89.2
2022-09-28T09:26:20.059Z,88.6
2022-09-28T09:29:16.350Z,88.4
2022-09-28T09:32:16.359Z,89.3
2022-09-28T09:35:16.580Z,89.5
2022-09-28T09:38:16.377Z,89
2022-09-28T09:41:16.385Z,88.7
2022-09-28T09:44:16.433Z,88.8
2022-09-28T09:47:16.403Z,88.2
2022-09-28T09:50:16.403Z,88
2022-09-28T09:53:16.419Z,87.7
2022-09-28T09:56:16.424Z,87.3
2022-09-28T09:59:16.505Z,86.7
2022-09-28T10:02:16.489Z,86.3
2022-09-28T10:05:16.456Z,86.1
2022-09-28T10:08:16.468Z,87
2022-09-28T10:11:16.463Z,87.3
2022-09-28T10:14:16.476Z,87.7
2022-09-28T10:17:16.481Z,87.5
2022-09-28T10:20:16.507Z,88.3
2022-09-28T10:23:16.504Z,87.8
2022-09-28T10:26:16.504Z,88
2022-09-28T10:29:16.538Z,88.1
2022-09-28T10:32:16.524Z,88.1
2022-09-28T10:35:16.529Z,88.2
2022-09-28T10:38:16.570Z,87.9
2022-09-28T10:41:16.547Z,88
2022-09-28T10:44:16.561Z,87.9
2022-09-28T10:47:16.573Z,88.1
2022-09-28T10:50:16.579Z,88.4
2022-09-28T10:53:16.592Z,88.4
2022-09-28T10:56:16.619Z,88.9
2022-09-28T10:59:16.608Z,88.9
2022-09-28T11:02:16.704Z,88.3
2022-09-28T11:05:16.616Z,87.6
2022-09-28T11:08:16.627Z,87.6
2022-09-28T11:11:16.664Z,87.2
2022-09-28T11:14:16.678Z,86.9
2022-09-28T11:17:16.657Z,86.9
2022-09-28T11:20:16.694Z,87.9
2022-09-28T11:23:16.669Z,88.2
2022-09-28T11:26:18.686Z,88.3
2022-09-28T11:29:16.750Z,87.8
2022-09-28T11:32:16.724Z,87.4
2022-09-28T11:35:16.708Z,87.6
2022-09-28T11:38:16.717Z,86.1
2022-09-28T11:41:16.722Z,85.6
2022-09-28T11:44:16.762Z,85.4
2022-09-28T11:47:16.740Z,85.2
2022-09-28T11:50:20.088Z,84.9
2022-09-28T11:53:16.761Z,84.5
2022-09-28T11:56:16.774Z,83.4
2022-09-28T11:59:16.790Z,83
2022-09-28T12:02:16.924Z,83.6
2022-09-28T12:05:20.637Z,83.9
2022-09-28T12:08:16.830Z,84.4
2022-09-28T12:11:16.816Z,84.7
2022-09-28T12:14:16.838Z,85.2
2022-09-28T12:17:20.071Z,85.2
2022-09-28T12:20:16.844Z,85.6
2022-09-28T12:23:16.856Z,85.9
2022-09-28T12:26:16.976Z,86.8
2022-09-28T12:29:16.891Z,87.6
2022-09-28T12:32:16.882Z,87.9
2022-09-28T12:35:16.889Z,88.4
2022-09-28T12:38:16.894Z,88.5
2022-09-28T12:41:16.908Z,89
2022-09-28T12:44:16.942Z,89.2
2022-09-28T12:47:16.918Z,89.5
2022-09-28T12:53:16.925Z,90.3
2022-09-28T12:56:18.098Z,90.7
2022-09-28T12:59:16.980Z,91
2022-09-28T13:02:16.998Z,90.9
2022-09-28T13:05:16.961Z,91.2
2022-09-28T13:08:16.972Z,91.1
2022-09-28T13:11:16.979Z,90.7
2022-09-28T13:14:16.997Z,90.5
2022-09-28T13:17:17.002Z,90.4
2022-09-28T13:20:17.032Z,90.2
2022-09-28T13:23:17.016Z,89.8
2022-09-28T13:26:17.024Z,89.1
2022-09-28T13:29:17.226Z,88.8
2022-09-28T13:32:17.042Z,88.7
2022-09-28T13:35:17.047Z,88.4
2022-09-28T13:38:17.087Z,88.6
2022-09-28T13:41:17.066Z,88.4
2022-09-28T13:44:17.149Z,88.4
2022-09-28T13:47:20.592Z,87.9
2022-09-28T13:50:17.090Z,88
2022-09-28T13:53:17.101Z,88.1
2022-09-28T13:56:17.135Z,88.4
2022-09-28T13:59:17.157Z,88.9
2022-09-28T14:02:17.170Z,88.6
2022-09-28T14:05:17.138Z,88.3
2022-09-28T14:08:17.144Z,88.6
2022-09-28T14:11:17.150Z,88.5
2022-09-28T14:14:17.197Z,88.4
2022-09-28T14:17:17.167Z,88.6
2022-09-28T14:20:17.171Z,88.9
2022-09-28T14:23:17.183Z,88.8
2022-09-28T14:26:17.187Z,88.7
2022-09-28T14:29:17.313Z,88.4
2022-09-28T14:32:17.228Z,87.8
2022-09-28T14:35:18.821Z,88
2022-09-28T14:38:17.224Z,87.8
2022-09-28T14:41:17.225Z,87.8
2022-09-28T14:44:17.246Z,88.1
2022-09-28T14:47:17.241Z,88.8
2022-09-28T14:50:17.392Z,88.8
2022-09-28T14:53:17.270Z,88.7
2022-09-28T14:56:17.269Z,89.1
2022-09-28T14:59:17.287Z,89.1
2022-09-28T15:02:17.286Z,89.1
2022-09-28T15:05:17.397Z,89.3
2022-09-28T15:08:17.309Z,88.7
2022-09-28T15:11:17.301Z,88.7
2022-09-28T15:14:17.315Z,88.7
2022-09-28T15:17:17.303Z,88.2
2022-09-28T15:20:17.307Z,87.8
2022-09-28T15:23:17.658Z,87.8
2022-09-28T15:26:17.342Z,88
2022-09-28T15:29:17.339Z,88.2
2022-09-28T15:32:17.330Z,88.2
2022-09-28T15:35:17.343Z,88.5
2022-09-28T15:38:17.346Z,88.7
2022-09-28T15:41:17.351Z,88.8
2022-09-28T15:44:17.402Z,89.1
2022-09-28T15:47:17.356Z,89.4
2022-09-28T15:50:17.361Z,89.2
2022-09-28T15:53:17.364Z,89.2
2022-09-28T15:56:17.368Z,88.9
2022-09-28T15:59:17.385Z,88.9
2022-09-28T16:02:17.485Z,89
2022-09-28T16:05:17.383Z,89.3
2022-09-28T16:08:17.389Z,89.3
2022-09-28T16:11:17.532Z,88.8
2022-09-28T16:14:17.400Z,88.9
2022-09-28T16:17:17.417Z,88.9
2022-09-28T16:20:17.443Z,88.8
2022-09-28T16:23:17.406Z,88.8
2022-09-28T16:26:17.401Z,89.1
2022-09-28T16:29:17.607Z,89.4
2022-09-28T16:32:17.409Z,89.7
2022-09-28T16:35:17.410Z,90
2022-09-28T16:38:17.434Z,90.3
2022-09-28T16:41:17.412Z,90.4
2022-09-28T16:44:17.441Z,90.6
2022-09-28T16:47:17.421Z,90.8
2022-09-28T16:50:17.416Z,90.9
2022-09-28T16:53:17.431Z,90.9
2022-09-28T16:56:17.449Z,91.1
2022-09-28T16:59:17.462Z,91
2022-09-28T17:02:30.057Z,91.2
2022-09-28T17:05:17.452Z,91.3
2022-09-28T17:08:17.555Z,91.4
2022-09-28T17:11:22.679Z,91.7
2022-09-28T17:14:17.507Z,92
2022-09-28T17:17:17.517Z,92.2
2022-09-28T17:20:17.485Z,92.4
2022-09-28T17:23:17.490Z,92.5
2022-09-28T17:26:17.498Z,92.6
2022-09-28T17:29:17.690Z,92.7
2022-09-28T17:32:17.538Z,92.7
2022-09-28T17:35:25.699Z,92.8
2022-09-28T17:38:17.527Z,93
2022-09-28T17:41:20.341Z,93
2022-09-28T17:44:17.614Z,93
2022-09-28T17:47:17.556Z,93
2022-09-28T17:50:17.630Z,93.1
2022-09-28T17:53:17.558Z,93.1
2022-09-28T17:56:17.570Z,93.2
2022-09-28T17:59:17.589Z,93.3
2022-09-28T18:02:17.607Z,93.4
2022-09-28T18:05:17.598Z,93.5
2022-09-28T18:08:17.630Z,93.7
2022-09-28T18:11:17.622Z,93.7
2022-09-28T18:14:17.663Z,93.7
2022-09-28T18:17:17.627Z,93.8
2022-09-28T18:20:17.629Z,93.8
2022-09-28T18:23:17.643Z,93.8
2022-09-28T18:26:17.669Z,93.7
2022-09-28T18:29:17.831Z,93.7
2022-09-28T18:32:17.655Z,93.8
2022-09-28T18:35:22.095Z,93.8
2022-09-28T18:38:17.670Z,93.8
2022-09-28T18:41:17.680Z,94
2022-09-28T18:44:17.725Z,94
2022-09-28T18:47:17.698Z,94.1
2022-09-28T18:50:17.704Z,94.2
2022-09-28T18:53:17.710Z,94.3
2022-09-28T18:56:17.727Z,94.4
2022-09-28T18:59:17.745Z,94.4
2022-09-28T19:02:17.941Z,94.4
2022-09-28T19:05:17.751Z,94.4
2022-09-28T19:08:17.752Z,94.4
2022-09-28T19:11:17.756Z,94.4
2022-09-28T19:14:17.772Z,94.5
2022-09-28T19:17:17.767Z,94.5
2022-09-28T19:20:17.808Z,94.5
2022-09-28T19:23:17.780Z,94.6
2022-09-28T19:26:17.791Z,94.6
2022-09-28T19:29:18.009Z,94.6
2022-09-28T19:32:17.815Z,94.6
2022-09-28T19:35:17.821Z,94.6
2022-09-28T19:38:17.865Z,94.6
2022-09-28T19:41:17.861Z,94.7
2022-09-28T19:44:18.013Z,94.8
2022-09-28T19:47:17.896Z,94.8
2022-09-28T19:50:17.915Z,94.8
2022-09-28T19:53:17.923Z,94.8
2022-09-28T19:56:17.973Z,94.8
2022-09-28T19:59:17.968Z,94.9
2022-09-28T20:02:18.044Z,94.9
2022-09-28T20:05:17.989Z,94.9
2022-09-28T20:08:17.990Z,95
2022-09-28T20:11:18.002Z,95
2022-09-28T20:14:18.050Z,95
2022-09-28T20:17:18.016Z,95.1
2022-09-28T20:20:18.020Z,95.1
2022-09-28T20:23:18.029Z,95.1
2022-09-28T20:26:18.039Z,95
2022-09-28T20:29:18.273Z,95
2022-09-28T20:32:18.102Z,95
2022-09-28T20:35:30.263Z,94.9
2022-09-28T20:38:18.099Z,94.8
2022-09-28T20:41:18.115Z,94.6
2022-09-28T20:44:18.294Z,94.5
2022-09-28T20:47:18.132Z,94.5
2022-09-28T20:50:18.175Z,94.5
2022-09-28T20:53:18.159Z,94.5
2022-09-28T20:56:18.171Z,94.6
2022-09-28T20:59:18.201Z,94.7
2022-09-28T21:02:18.281Z,94.8
2022-09-28T21:05:18.204Z,94.9
2022-09-28T21:08:18.237Z,95
2022-09-28T21:11:18.217Z,95
2022-09-28T21:14:18.314Z,95.1
2022-09-28T21:17:18.244Z,95.2
2022-09-28T21:20:18.260Z,95.2
2022-09-28T21:23:21.586Z,95.2
2022-09-28T21:26:18.306Z,95.2
2022-09-28T21:29:18.331Z,95.2
2022-09-28T21:32:18.316Z,95.2
2022-09-28T21:35:18.325Z,95.2
2022-09-28T21:38:18.338Z,95.2
2022-09-28T21:41:18.358Z,95.1
2022-09-28T21:44:18.518Z,95.1
2022-09-28T21:47:18.377Z,95
2022-09-28T21:50:18.400Z,94.9
2022-09-28T21:53:18.404Z,94.9
2022-09-28T21:56:18.410Z,94.8
2022-09-28T21:59:18.428Z,94.8
2022-09-28T22:02:18.491Z,95
2022-09-28T22:05:18.438Z,95
2022-09-28T22:08:18.498Z,95.1
2022-09-28T22:11:18.471Z,95.2
2022-09-28T22:14:18.649Z,95.3
2022-09-28T22:17:18.505Z,95.3
2022-09-28T22:20:18.540Z,95.4
2022-09-28T22:23:18.528Z,95.4
2022-09-28T22:26:18.547Z,95.5
2022-09-28T22:29:18.578Z,95.6
2022-09-28T22:32:18.567Z,95.7
2022-09-28T22:35:18.586Z,95.7
2022-09-28T22:38:18.621Z,95.7
2022-09-28T22:41:18.616Z,95.7
2022-09-28T22:44:18.809Z,95.6
2022-09-28T22:47:18.627Z,95.5
2022-09-28T22:50:18.643Z,95.5
2022-09-28T22:53:18.665Z,95.4
2022-09-28T22:56:19.315Z,95.5
2022-09-28T22:59:18.862Z,95.6
2022-09-28T23:02:18.695Z,95.7
2022-09-28T23:05:18.717Z,95.8
2022-09-28T23:08:18.722Z,95.8
2022-09-28T23:11:18.728Z,95.8
2022-09-28T23:14:18.792Z,95.7
2022-09-28T23:17:18.762Z,95.7
2022-09-28T23:20:18.785Z,95.8
2022-09-28T23:23:18.795Z,95.9
2022-09-28T23:26:18.810Z,95.9
2022-09-28T23:29:18.917Z,96
2022-09-28T23:32:18.869Z,96
2022-09-28T23:35:18.850Z,96.2
2022-09-28T23:38:18.858Z,96.2
2022-09-28T23:41:18.863Z,96
2022-09-28T23:44:18.883Z,95.6
2022-09-28T23:47:18.899Z,95.5
2022-09-28T23:50:18.930Z,95.6
2022-09-28T23:53:18.925Z,95.8
2022-09-28T23:56:18.939Z,95.8
2022-09-28T23:59:19.031Z,95.8
